Aeroporto :
LOGIN :

Iscrizione | Disclaimer

   EN    FR    IT 

 










Sommario :    VFR   VFR Marginale   IFR   IFR Intensivo   IFR Molto Intensivo
Visibilità : 
Base nubi : 
>= 8 km
>= 3000ft
5 / 8 km
1000 / 3000 ft
1500m / 5 km
500 / 1000 ft
800 / 1500m
200 / 500 ft
< 800m
< 200 ft
Simboli :   Temporali  Nebbia  Neve Forte  Precipitazioni Forti  Vento > 20 kt
SIGMETs :   Varie  Temporali  Ghiacco  Turbolenza  Onda orograficha  Ceneri Vulcaniche






- Altitudine del aeroporto : 56 ft
- Codice IATA : BZR


LFMU - Beziers / Vias

ULTIMO METAR :
  • 141230Z AUTO 09014KT 060V120 9999 FEW024 24/16 Q1014 NOSIG

METARs OBSOLETI :
  • 141200Z AUTO 07013KT CAVOK 24/15 Q1014 TEMPO 14010KT
  • 141130Z AUTO 08014KT CAVOK 24/15 Q1014 TEMPO 14010KT
  • 141100Z AUTO 08015KT 050V110 9999 SCT021 SCT026 24/17 Q1014 NOSIG
  • 141030Z AUTO 09013KT 9999 BKN020 OVC025 24/17 Q1015 NOSIG
  • 141000Z AUTO 08014KT 050V110 9999 BKN020 23/17 Q1015 NOSIG
  • 140930Z AUTO 08016KT 9999 BKN018 23/17 Q1015 NOSIG
  • 140900Z AUTO 09015KT 9999 SCT015 23/17 Q1015 NOSIG
  • 140830Z AUTO 08014KT 9999 BKN015 22/18 Q1015 BECMG OVC008
  • 140800Z AUTO 06012KT 030V090 9999 BKN013 22/17 Q1015 BECMG OVC008

TAF AMD TAF LFMU
Valido dal 14 a 09 ore il 15 a 09 ore UTC


140912Z 1409/1509 06010KT 9999 SCT015 BKN100
TEMPO 1412/1415 14010KT
TEMPO 1420/1422 3000 RA BKN008
BECMG 1422/1423 31010KT BKN030
ATIS : +33 4 67 90 88 88



MetMap, La meteo Aeronautica in un colpo d'occhio ! - Copyright ORBIFLY Dicembre 2007 - Disclaimer

ORBIFLY MET'MAP TEAM :

Programmazione e sviluppo : Alexandra Zaïnal
Concezione : Baudouin d'Aumeries
Supporto tecnico e logistico : Manuel Goepfert
Aiuto : Marc-Olivier Méhu
Aiuto per la traduzione : Arnaldo La Scala




FONTI E CREDITI :

   NOAA